Weather reports worldwide

Advertisment
S. Valentino Alla Muta, Italy (16008): temperature & dewpoint: 14.06.2018 11:00:00 - 20.06.2018 11:00:00 (CEST)S. Valentino Alla Muta, Italy (16008): wind speed: 14.06.2018 11:00:00 - 20.06.2018 11:00:00 (CEST)S. Valentino Alla Muta, Italy (16008): wind direction: 14.06.2018 11:00:00 - 20.06.2018 11:00:00 (CEST)S. Valentino Alla Muta, Italy (16008): visibility: 14.06.2018 11:00:00 - 20.06.2018 11:00:00 (CEST)
Date & Time tt [°C] td [°C] ff [km/h] ff [kn] dd vv [km]
20.06.2018 11:00:00 19,0 10,5 13 7 SSW 20
20.06.2018 10:00:00 16,6 11,5 5 3 NNW 30
20.06.2018 09:00:00 14,2 11,0 9 5 N 20
20.06.2018 08:00:00 12,2 10,8 9 5 NNE 20
20.06.2018 07:00:00 12,0 10,9 9 5 NNE 15
20.06.2018 06:00:00 12,2 10,9 5 3 N 15
20.06.2018 05:00:00 13,0 11,1 5 3 N 15
20.06.2018 04:00:00 13,0 10,9 5 3 NNW 15
20.06.2018 03:00:00 13,8 10,6 5 3 NNE 10
20.06.2018 02:00:00 14,2 9,8 8 4 N 15
20.06.2018 01:00:00 15,0 10,2 8 4 NNW 20
20.06.2018 00:00:00 17,0 9,9 9 5 NNE 20
19.06.2018 23:00:00 17,4 9,1 9 5 NNE 20
19.06.2018 22:00:00 18,2 7,9 9 5 NNE 30
19.06.2018 21:00:00 19,6 4,9 13 7 N 30
19.06.2018 20:00:00 20,6 5,0 15 8 NNW 30
19.06.2018 19:00:00 22,2 4,3 15 8 NNW 30
19.06.2018 18:00:00 23,2 3,2 13 7 N 30
19.06.2018 17:00:00 24,0 5,4 15 8 N 30
19.06.2018 16:00:00 24,0 4,4 15 8 N 30
19.06.2018 15:00:00 24,0 5,4 16 9 N 30
19.06.2018 14:00:00 23,4 4,9 13 7 NNE 30
19.06.2018 13:00:00 22,2 3,8 15 8 NNE 30
19.06.2018 12:00:00 20,6 4,2 15 8 NNE 30
19.06.2018 11:00:00 18,2 6,7 15 8 NNE 30
19.06.2018 10:00:00 15,0 10,4 15 8 NE 20
19.06.2018 09:00:00 13,2 10,4 13 7 NNE 20
19.06.2018 08:00:00 11,6 10,8 15 8 N 20
19.06.2018 07:00:00 11,2 10,0 11 6 NNE 15
19.06.2018 06:00:00 11,2 10,3 9 5 NNE 15
19.06.2018 05:00:00 11,6 10,5 13 7 NNE 15
19.06.2018 04:00:00 12,0 10,4 13 7 NNE 15
19.06.2018 03:00:00 12,0 10,1 9 5 NNE 15
19.06.2018 02:00:00 12,2 10,1 9 5 NNE 15
19.06.2018 01:00:00 13,0 9,6 9 5 NNE 15
19.06.2018 00:00:00 13,8 10,0 8 4 NNE 15
18.06.2018 23:00:00 14,8 9,4 5 3 N 18
18.06.2018 22:00:00 15,2 8,9 9 5 NNE 20
18.06.2018 21:00:00 16,0 8,5 8 4 NE 20
18.06.2018 20:00:00 16,2 6,1 9 5 N 20
18.06.2018 19:00:00 17,4 6,3 11 6 N 20
18.06.2018 18:00:00 18,0 5,6 11 6 N 20
18.06.2018 17:00:00 17,8 4,7 13 7 N 20
18.06.2018 16:00:00 18,6 3,6 11 6 N 20
18.06.2018 15:00:00 18,8 3,0 13 7 N 20
18.06.2018 14:00:00 18,6 3,3 13 7 N 20
18.06.2018 13:00:00 17,4 5,4 15 8 N 20
18.06.2018 12:00:00 18,6 5,8 15 8 NNE 20
18.06.2018 11:00:00 15,4 8,9 9 5 NNE 20
18.06.2018 10:00:00 12,8 8,5 9 5 NE 20
18.06.2018 09:00:00 12,2 9,2 8 4 ENE 20
18.06.2018 08:00:00 11,2 10,0 11 6 NE 20
18.06.2018 07:00:00 11,0 9,6 9 5 NE 20
18.06.2018 06:00:00 11,8 8,3 11 6 NNE 20
18.06.2018 05:00:00 12,0 8,7 11 6 NNE 15
18.06.2018 04:00:00 12,4 8,7 11 6 NNE 10
18.06.2018 03:00:00 - - - - - -
18.06.2018 02:00:00 13,6 7,6 9 5 NNE 10
18.06.2018 01:00:00 13,6 8,2 8 4 NNE 10
18.06.2018 00:00:00 14,0 7,8 9 5 NNE 12
17.06.2018 23:00:00 10,0 2,6 11 6 N 12
17.06.2018 22:00:00 10,6 1,9 9 5 N 12
17.06.2018 21:00:00 16,6 5,5 11 6 N 20
17.06.2018 20:00:00 17,6 4,2 11 6 N 20
17.06.2018 19:00:00 18,6 3,6 11 6 N 20
17.06.2018 18:00:00 19,8 4,7 13 7 N 20
17.06.2018 17:00:00 19,4 1,4 13 7 NNE 20
17.06.2018 16:00:00 19,8 0,8 8 4 NE 20
17.06.2018 15:00:00 20,6 -1,2 11 6 N 20
17.06.2018 14:00:00 21,6 0,2 11 6 N 20
17.06.2018 13:00:00 21,0 0,2 11 6 N 20
17.06.2018 12:00:00 19,6 0,6 11 6 N 20
17.06.2018 11:00:00 17,2 2,4 11 6 N 20
17.06.2018 10:00:00 14,6 6,2 9 5 NE 20
17.06.2018 09:00:00 12,6 6,4 8 4 NE 20
17.06.2018 08:00:00 10,4 7,5 8 4 NNE 20
17.06.2018 07:00:00 10,6 7,1 8 4 N 20
17.06.2018 06:00:00 10,8 7,1 5 3 N 20
17.06.2018 05:00:00 12,0 6,7 8 4 NE 12
17.06.2018 04:00:00 12,6 6,7 9 5 NE 12
17.06.2018 03:00:00 12,0 6,1 8 4 NNE 12
17.06.2018 02:00:00 13,4 7,0 9 5 NNE 12
17.06.2018 01:00:00 13,8 6,9 5 3 NNE 12
17.06.2018 00:00:00 14,2 6,5 8 4 N 12
16.06.2018 23:00:00 14,8 6,1 9 5 NNE 12
16.06.2018 22:00:00 15,4 5,3 5 3 N 12
16.06.2018 21:00:00 16,6 4,3 9 5 N 16
16.06.2018 20:00:00 18,0 1,5 13 7 NNW 20
16.06.2018 19:00:00 20,4 -0,3 13 7 NNW 20
16.06.2018 18:00:00 20,8 -3,6 11 6 N 20
16.06.2018 17:00:00 21,4 -4,6 13 7 N 20
16.06.2018 16:00:00 26,4 -4,2 13 7 N 30
16.06.2018 15:00:00 21,6 -7,0 15 8 NNE 20
16.06.2018 14:00:00 21,2 -9,3 15 8 N 20
16.06.2018 13:00:00 19,6 -6,1 13 7 NNE 20
16.06.2018 12:00:00 18,0 -4,6 15 8 NNE 20
16.06.2018 11:00:00 15,4 3,2 11 6 ENE 20
16.06.2018 10:00:00 13,0 6,8 11 6 NE 20
16.06.2018 09:00:00 11,4 6,7 9 5 NE 30
16.06.2018 08:00:00 9,2 6,5 9 5 NNE 30
16.06.2018 07:00:00 8,6 6,0 9 5 NNE 30
16.06.2018 06:00:00 8,6 5,9 5 3 N 20
16.06.2018 05:00:00 8,8 6,1 5 3 N 20
16.06.2018 04:00:00 - - - - - -
16.06.2018 03:00:00 - - - - - -
16.06.2018 02:00:00 11,4 5,7 9 5 NNE 12
16.06.2018 01:00:00 11,8 5,0 8 4 NNE 12
16.06.2018 00:00:00 12,6 4,6 11 6 NE 12
15.06.2018 23:00:00 13,4 2,0 9 5 NNE 20
15.06.2018 22:00:00 13,8 1,1 8 4 NNE 20
15.06.2018 21:00:00 15,2 0,2 9 5 N 30
15.06.2018 20:00:00 16,4 -1,2 15 8 NNW 30
15.06.2018 19:00:00 18,0 -2,3 13 7 NNW 30
15.06.2018 18:00:00 19,2 -3,0 15 8 N 30
15.06.2018 17:00:00 19,4 -2,8 15 8 N 30
15.06.2018 16:00:00 19,6 -3,3 13 7 N 30
15.06.2018 15:00:00 19,4 -2,8 13 7 N 20
15.06.2018 14:00:00 19,0 -2,6 16 9 NNE 30
15.06.2018 13:00:00 18,2 -2,7 13 7 NE 30
15.06.2018 12:00:00 17,0 -0,2 13 7 NNE 30
15.06.2018 11:00:00 14,0 1,6 11 6 ENE 30
15.06.2018 10:00:00 11,8 4,1 8 4 NE 30
15.06.2018 09:00:00 9,2 5,2 13 7 ENE 20
15.06.2018 08:00:00 8,0 5,5 13 7 ENE 20
15.06.2018 07:00:00 7,6 5,1 11 6 NE 14
15.06.2018 06:00:00 - - - - - -
15.06.2018 05:00:00 8,4 4,6 15 8 NE 12
15.06.2018 04:00:00 8,8 4,4 15 8 NE 12
15.06.2018 03:00:00 9,0 4,4 11 6 NE 12
15.06.2018 02:00:00 9,6 5,0 11 6 NNE 12
15.06.2018 01:00:00 10,0 4,2 11 6 NE 12
15.06.2018 00:00:00 10,6 4,5 13 7 NNE 12
14.06.2018 23:00:00 11,2 4,7 9 5 NE 12
14.06.2018 22:00:00 12,0 3,8 9 5 NE 12
14.06.2018 21:00:00 13,4 2,0 5 3 NE 16
14.06.2018 20:00:00 14,4 -0,1 13 7 NNW 20
14.06.2018 19:00:00 16,4 -0,8 11 6 NNW 20
14.06.2018 18:00:00 17,2 -2,5 15 8 N 30
14.06.2018 17:00:00 17,2 -3,0 16 9 N 30
14.06.2018 16:00:00 17,0 -0,2 18 10 NNE 30
14.06.2018 15:00:00 16,6 1,9 16 9 NNE 20
14.06.2018 14:00:00 16,4 2,8 16 9 NNE 20
14.06.2018 13:00:00 15,2 3,4 15 8 NE 20
14.06.2018 12:00:00 14,2 2,8 16 9 NE 20
14.06.2018 11:00:00 12,2 2,9 15 8 NE 20

tt = temperature
td = dewpoint
ff = wind speed
dd = wind direction
vv = visibility

Next stations